Time;durP1;ratioP1;P1;durP2;ratioP2;P2;SDS_P1;SDS_P2;PMS_P1;PMS_P2;Temp;Humidity;BMP_temperature;BMP_pressure;BME280_temperature;BME280_humidity;BME280_pressure;Samples;Min_cycle;Max_cycle;Signal;HPM_P1;HPM_P2
2023/01/04 00:02:55;;;;;;;1.73;0.50;;;;;;;18.82;37.38;101888.38;16112846;19;129726;-45
2023/01/04 00:08:17;;;;;;;2.35;0.68;;;;;;;18.79;37.44;101897.97;16113350;19;130470;-48
2023/01/04 00:13:38;;;;;;;4.20;0.95;;;;;;;18.78;37.69;101887.94;16109160;19;131243;-46
2023/01/04 00:19:00;;;;;;;2.92;0.90;;;;;;;18.76;37.44;101890.13;16114283;19;130126;-46
2023/01/04 00:24:22;;;;;;;1.27;0.50;;;;;;;18.73;37.50;101872.00;16111157;19;129679;-46
2023/01/04 00:29:44;;;;;;;1.10;0.40;;;;;;;18.70;37.96;101875.22;16110475;19;129149;-45
2023/01/04 00:35:06;;;;;;;1.90;0.50;;;;;;;18.69;37.64;101858.81;16113035;19;129263;-46
2023/01/04 00:40:27;;;;;;;2.40;0.60;;;;;;;18.68;37.54;101859.88;16123796;19;129217;-51
2023/01/04 00:45:49;;;;;;;1.38;0.40;;;;;;;18.65;37.62;101852.00;16127209;19;130461;-45
2023/01/04 00:51:11;;;;;;;1.23;0.38;;;;;;;18.64;38.07;101842.84;16128714;19;130275;-46
2023/01/04 00:56:33;;;;;;;1.65;0.50;;;;;;;18.64;37.78;101831.75;16120511;19;130429;-44
2023/01/04 01:01:56;;;;;;;2.17;0.60;;;;;;;18.64;37.95;101826.22;16123653;19;130371;-45
2023/01/04 01:07:17;;;;;;;2.15;0.50;;;;;;;18.61;37.67;101821.97;16129043;19;130938;-45
2023/01/04 01:12:39;;;;;;;1.55;0.40;;;;;;;18.60;38.12;101827.72;16127039;19;129536;-45
2023/01/04 01:18:01;;;;;;;1.20;0.47;;;;;;;18.57;38.07;101836.53;16127748;19;133157;-45
2023/01/04 01:23:23;;;;;;;2.63;0.57;;;;;;;18.55;37.83;101811.78;16124594;19;130270;-44
2023/01/04 01:28:45;;;;;;;2.40;0.40;;;;;;;18.53;38.16;101816.69;16130468;19;130208;-44
2023/01/04 01:34:07;;;;;;;1.25;0.50;;;;;;;18.52;37.89;101800.31;16124756;19;130872;-45
2023/01/04 01:39:29;;;;;;;0.70;0.47;;;;;;;18.50;37.77;101800.53;16125029;19;130730;-45
2023/01/04 01:44:58;;;;;;;1.15;0.40;;;;;;;18.50;38.07;101792.22;16125486;19;129095;-46
2023/01/04 01:50:26;;;;;;;0.82;0.35;;;;;;;18.49;38.17;101792.44;16117279;19;130280;-46
2023/01/04 01:55:49;;;;;;;0.57;0.30;;;;;;;18.46;37.91;101779.88;16124188;19;131250;-44
2023/01/04 02:01:12;;;;;;;0.50;0.32;;;;;;;18.45;37.93;101795.66;16124371;19;130052;-45
2023/01/04 02:06:40;;;;;;;1.27;0.40;;;;;;;18.44;38.15;101793.97;16119989;19;129978;-44
2023/01/04 02:12:02;;;;;;;1.02;0.40;;;;;;;18.43;38.30;101792.28;16121609;19;129376;-46
2023/01/04 02:17:52;;;;;;;0.40;0.20;;;;;;;18.42;38.44;101790.56;16117747;19;129080;-46
2023/01/04 02:23:47;;;;;;;0.70;0.30;;;;;;;18.39;38.47;101793.78;16121764;19;130052;-44
2023/01/04 02:29:37;;;;;;;0.88;0.30;;;;;;;18.40;38.21;101784.41;16120022;19;130709;-45
2023/01/04 02:35:40;;;;;;;1.00;0.40;;;;;;;18.37;38.21;101775.66;16121381;19;130605;-43
2023/01/04 02:41:22;;;;;;;0.45;0.20;;;;;;;18.35;38.54;101770.31;16122029;19;129566;-45
2023/01/04 02:46:50;;;;;;;0.63;0.20;;;;;;;18.33;38.50;101769.72;16122175;19;130160;-44
2023/01/04 02:52:12;;;;;;;0.45;0.20;;;;;;;18.32;38.36;101770.78;16120844;19;130238;-46
2023/01/04 02:57:40;;;;;;;0.35;0.13;;;;;;;18.31;38.22;101756.09;16116243;19;129601;-44
2023/01/04 03:09:13;;;;;;;0.50;0.20;;;;;;;18.28;38.32;101747.38;16122001;19;129196;-44
2023/01/04 03:14:59;;;;;;;0.17;0.15;;;;;;;18.28;38.48;101747.38;16119021;19;130004;-44
2023/01/04 03:20:23;;;;;;;0.60;0.20;;;;;;;18.25;38.67;101734.84;16118695;19;130645;-44
2023/01/04 03:50:08;;;;;;;0.85;0.30;;;;;;;18.21;38.85;101677.34;16118026;19;130263;-45
2023/01/04 03:55:33;;;;;;;1.30;0.10;;;;;;;18.19;38.81;101677.56;16114229;19;129988;-44
2023/01/04 04:01:02;;;;;;;0.43;0.20;;;;;;;18.19;38.99;101676.72;16117896;19;129083;-43
2023/01/04 04:12:05;;;;;;;1.13;0.10;;;;;;;18.17;39.07;101676.09;16120977;19;129174;-43
2023/01/04 04:17:26;;;;;;;0.17;0.10;;;;;;;18.15;38.75;101660.53;16129462;19;131723;-43
2023/01/04 04:22:48;;;;;;;0.38;0.20;;;;;;;18.14;38.99;101655.25;16130348;19;130034;-43
2023/01/04 04:28:10;;;;;;;1.85;0.20;;;;;;;18.15;38.87;101645.88;16130972;19;129501;-45
2023/01/04 04:33:32;;;;;;;0.52;0.20;;;;;;;18.14;39.13;101639.47;16127653;19;130589;-46
2023/01/04 04:38:53;;;;;;;0.38;0.17;;;;;;;18.13;39.14;101635.00;16128950;19;129589;-46
2023/01/04 04:44:18;;;;;;;0.88;0.20;;;;;;;18.12;38.78;101627.75;16128944;19;130970;-49
2023/01/04 04:49:40;;;;;;;0.30;0.20;;;;;;;18.11;39.15;101622.47;16127313;19;129932;-44
2023/01/04 04:55:01;;;;;;;0.45;0.10;;;;;;;18.10;39.27;101596.69;16127773;19;130203;-48
2023/01/04 05:00:23;;;;;;;0.63;0.20;;;;;;;18.10;39.04;101610.53;16126388;19;129701;-45
2023/01/04 05:05:45;;;;;;;0.47;0.28;;;;;;;18.09;38.92;101603.28;16127993;19;130303;-46
2023/01/04 05:11:11;;;;;;;0.15;0.10;;;;;;;18.08;39.12;101590.53;16125408;19;131841;-45
2023/01/04 05:16:33;;;;;;;0.20;0.10;;;;;;;18.07;38.99;101602.69;16125837;19;129175;-45
2023/01/04 05:21:55;;;;;;;0.68;0.20;;;;;;;18.07;39.06;101597.16;16124869;19;128789;-46
2023/01/04 05:27:16;;;;;;;0.47;0.22;;;;;;;18.07;39.00;101594.38;16125431;19;130124;-46
2023/01/04 05:32:38;;;;;;;1.27;0.28;;;;;;;18.06;39.37;101576.06;16124077;19;131975;-47
2023/01/04 05:38:00;;;;;;;3.35;0.28;;;;;;;18.06;39.01;101584.38;16126349;19;129502;-47
2023/01/04 05:43:23;;;;;;;0.38;0.10;;;;;;;18.05;39.10;101574.38;16125490;19;130230;-45
2023/01/04 05:48:45;;;;;;;0.38;0.20;;;;;;;18.05;39.39;101567.97;16127392;19;129856;-47
2023/01/04 05:54:06;;;;;;;0.38;0.10;;;;;;;18.05;39.08;101577.13;16124969;19;130762;-48
2023/01/04 05:59:28;;;;;;;0.95;0.30;;;;;;;18.04;39.55;101577.34;16125353;19;130624;-45
2023/01/04 06:04:59;;;;;;;0.40;0.28;;;;;;;18.04;39.61;101580.97;16121625;19;130475;-47
2023/01/04 06:10:20;;;;;;;0.20;0.10;;;;;;;18.18;39.33;101578.09;16123256;19;129804;-46
2023/01/04 06:15:44;;;;;;;0.60;0.10;;;;;;;18.57;39.19;101570.50;16123034;19;129104;-46
2023/01/04 06:21:05;;;;;;;0.20;0.10;;;;;;;19.04;38.27;101564.34;16123882;19;130109;-44
2023/01/04 06:26:27;;;;;;;0.10;0.10;;;;;;;19.43;38.27;101564.09;16119763;19;130047;-45
2023/01/04 06:31:49;;;;;;;0.70;0.20;;;;;;;19.80;37.54;101569.50;16122267;19;130353;-43
2023/01/04 06:37:11;;;;;;;0.57;0.20;;;;;;;20.02;37.26;101560.59;16120917;19;129057;-45
2023/01/04 06:42:44;;;;;;;0.22;0.10;;;;;;;20.07;36.95;101560.72;16119410;19;129206;-47
2023/01/04 06:48:07;;;;;;;1.27;0.40;;;;;;;19.96;37.28;101554.88;16120587;19;135966;-45
2023/01/04 06:53:29;;;;;;;2.28;0.30;;;;;;;19.88;37.84;101565.53;16113867;19;130302;-44
2023/01/04 06:58:51;;;;;;;2.65;0.50;;;;;;;19.83;37.64;101549.56;16117145;19;129843;-45
2023/01/04 07:04:13;;;;;;;7.10;0.40;;;;;;;19.77;38.11;101556.06;16119897;19;132601;-43
2023/01/04 07:09:35;;;;;;;4.90;0.30;;;;;;;19.68;38.21;101553.66;16117618;19;130039;-46
2023/01/04 07:14:57;;;;;;;0.38;0.30;;;;;;;19.59;38.28;101549.50;16113165;19;130660;-47
2023/01/04 07:20:19;;;;;;;0.85;0.25;;;;;;;19.50;38.51;101559.25;16118286;19;130291;-45
2023/01/04 07:25:41;;;;;;;5.07;0.30;;;;;;;19.40;38.77;101545.13;16120361;19;130368;-46
2023/01/04 07:31:06;;;;;;;4.22;0.30;;;;;;;19.30;38.60;101535.47;16114489;19;129805;-44
2023/01/04 07:36:28;;;;;;;4.43;0.30;;;;;;;19.27;38.65;101530.38;16116398;19;131584;-44
2023/01/04 07:41:50;;;;;;;3.78;0.50;;;;;;;19.29;38.97;101511.56;16116611;19;129935;-44
2023/01/04 07:47:12;;;;;;;2.17;0.20;;;;;;;19.33;38.96;101507.22;16116301;19;129325;-44
2023/01/04 07:52:34;;;;;;;4.63;0.30;;;;;;;19.37;38.72;101496.50;16114587;19;130648;-44
2023/01/04 07:57:56;;;;;;;2.38;0.35;;;;;;;19.47;38.35;101495.91;16115854;19;129334;-45
2023/01/04 08:03:17;;;;;;;4.35;0.32;;;;;;;19.74;38.08;101507.44;16112813;19;129003;-48
2023/01/04 08:08:39;;;;;;;1.33;0.30;;;;;;;20.01;37.90;101506.13;16113362;19;129011;-44
2023/01/04 08:14:02;;;;;;;1.50;0.60;;;;;;;20.24;37.93;101511.69;16107021;19;129729;-45
2023/01/04 08:19:24;;;;;;;2.95;0.30;;;;;;;20.51;37.87;101511.16;16112517;19;129054;-46
2023/01/04 08:24:46;;;;;;;3.13;0.60;;;;;;;20.75;37.12;101523.09;16112059;19;130079;-46
2023/01/04 08:30:08;;;;;;;4.25;0.43;;;;;;;20.88;36.78;101505.28;16105712;19;129982;-49
2023/01/04 08:35:30;;;;;;;11.02;0.60;;;;;;;20.89;36.97;101526.44;16109641;19;131020;-46
2023/01/04 08:40:51;;;;;;;11.85;1.17;;;;;;;20.77;37.07;101525.63;16107578;19;130544;-43
2023/01/04 08:46:27;;;;;;;7.20;0.70;;;;;;;20.62;37.26;101528.06;16110417;19;130714;-43
2023/01/04 08:51:49;;;;;;;7.47;0.80;;;;;;;20.48;37.24;101536.66;16111373;19;129682;-43
2023/01/04 08:57:11;;;;;;;5.68;0.80;;;;;;;20.34;37.04;101532.44;16107646;19;129910;-43
2023/01/04 09:02:33;;;;;;;6.97;0.55;;;;;;;20.20;37.44;101532.69;16121418;19;129607;-44
2023/01/04 09:07:55;;;;;;;3.85;0.65;;;;;;;20.06;37.68;101537.66;16130421;19;129840;-43
2023/01/04 09:13:16;;;;;;;5.22;0.50;;;;;;;19.94;37.93;101536.78;16125658;19;131456;-45
2023/01/04 09:18:38;;;;;;;8.38;0.60;;;;;;;19.82;37.75;101545.06;16124726;19;129923;-45
2023/01/04 09:24:00;;;;;;;4.97;0.73;;;;;;;19.72;37.68;101542.91;16120133;19;131487;-46
2023/01/04 09:29:23;;;;;;;5.03;0.40;;;;;;;19.61;37.95;101533.47;16117525;19;131066;-43
2023/01/04 09:34:46;;;;;;;3.92;0.63;;;;;;;19.52;38.33;101532.97;16119192;19;131273;-44
2023/01/04 09:40:19;;;;;;;2.22;0.47;;;;;;;19.45;38.47;101523.03;16118142;19;129485;-45
2023/01/04 09:45:41;;;;;;;5.18;0.70;;;;;;;19.36;38.58;101526.16;16115515;19;131105;-44
2023/01/04 09:51:09;;;;;;;3.17;0.40;;;;;;;19.30;39.01;101532.69;16116292;19;130119;-46
2023/01/04 09:56:34;;;;;;;3.08;0.35;;;;;;;19.26;38.71;101523.13;16113778;19;130566;-47
2023/01/04 10:02:14;;;;;;;1.40;0.50;;;;;;;19.22;39.00;101510.81;16116571;19;129874;-45
2023/01/04 10:07:36;;;;;;;1.83;0.60;;;;;;;19.16;39.22;101511.72;16117012;19;130090;-46
2023/01/04 10:13:13;;;;;;;2.47;0.40;;;;;;;19.13;39.23;101523.28;16120277;19;129973;-44
2023/01/04 10:18:50;;;;;;;2.65;0.60;;;;;;;19.10;39.26;101527.38;16120074;19;129744;-47
2023/01/04 10:25:02;;;;;;;1.15;0.55;;;;;;;19.06;39.34;101535.34;16119069;19;130676;-44
2023/01/04 10:30:23;;;;;;;3.08;0.52;;;;;;;19.01;39.54;101529.63;16120561;19;130435;-43
2023/01/04 10:35:47;;;;;;;4.70;0.50;;;;;;;19.00;39.81;101530.72;16120068;19;130156;-48
2023/01/04 10:41:17;;;;;;;2.45;0.40;;;;;;;19.00;39.60;101511.28;16117631;19;129488;-44
2023/01/04 10:46:56;;;;;;;2.40;0.68;;;;;;;18.98;39.80;101527.31;16120783;19;132100;-44
2023/01/04 10:52:30;;;;;;;10.30;0.65;;;;;;;18.98;40.04;101526.47;16121132;19;129727;-43
2023/01/04 10:58:01;;;;;;;2.45;0.50;;;;;;;18.94;39.99;101503.94;16121136;19;129516;-46
2023/01/04 11:03:26;;;;;;;4.78;0.55;;;;;;;18.92;40.48;101506.09;16118923;19;132002;-48
2023/01/04 11:08:48;;;;;;;;;;;;;;;18.86;40.31;101493.16;16122212;19;130956;-44
2023/01/04 11:14:11;;;;;;;3.85;0.40;;;;;;;18.87;40.75;101492.06;16121033;19;129698;-45
2023/01/04 11:19:33;;;;;;;7.90;0.60;;;;;;;18.85;40.66;101486.78;16115936;19;129571;-45
2023/01/04 11:25:05;;;;;;;9.93;0.88;;;;;;;18.86;40.50;101493.16;16119486;19;130155;-47
2023/01/04 11:31:08;;;;;;;11.30;0.47;;;;;;;18.83;40.82;101502.78;16120710;19;129048;-51
2023/01/04 11:36:31;;;;;;;4.05;0.40;;;;;;;18.81;40.71;101495.78;16115730;19;131828;-50
2023/01/04 11:42:04;;;;;;;2.63;0.70;;;;;;;18.91;41.18;101496.06;16118637;19;130525;-47
2023/01/04 11:47:29;;;;;;;6.45;0.70;;;;;;;19.07;40.59;101484.34;16116658;19;129785;-46
2023/01/04 11:52:53;;;;;;;5.82;0.38;;;;;;;19.28;40.64;101476.59;16118222;19;130568;-46
2023/01/04 11:58:17;;;;;;;4.15;0.57;;;;;;;19.49;40.62;101477.09;16111347;19;130239;-47
2023/01/04 12:03:39;;;;;;;2.90;0.68;;;;;;;19.67;40.20;101488.13;16117940;19;131374;-47
2023/01/04 12:09:01;;;;;;;4.78;0.60;;;;;;;19.84;40.19;101482.69;16116248;19;129529;-47
2023/01/04 12:14:31;;;;;;;2.58;0.50;;;;;;;19.93;40.13;101472.06;16112833;19;130657;-47
2023/01/04 12:19:55;;;;;;;7.10;0.60;;;;;;;19.96;39.81;101479.06;16117442;19;130147;-48
2023/01/04 12:25:20;;;;;;;8.00;1.05;;;;;;;19.95;40.32;101475.44;16114960;19;130014;-44
2023/01/04 12:30:45;;;;;;;7.47;0.93;;;;;;;19.95;39.89;101475.44;16120303;19;137005;-44
2023/01/04 12:36:12;;;;;;;6.23;0.53;;;;;;;19.95;40.32;101444.88;16131638;19;129104;-47
2023/01/04 12:41:33;;;;;;;13.18;0.80;;;;;;;19.94;40.41;101457.06;16128994;19;129651;-45
2023/01/04 12:52:47;;;;;;;6.13;0.63;;;;;;;19.87;40.33;101461.09;16131448;19;129592;-45
2023/01/04 12:58:31;;;;;;;7.30;0.65;;;;;;;19.81;40.61;101457.34;16129331;19;129844;-46
2023/01/04 13:04:40;;;;;;;7.40;0.80;;;;;;;19.78;40.36;101463.38;16131394;19;130571;-44
2023/01/04 13:10:27;;;;;;;99.15;3.95;;;;;;;19.71;41.04;101468.19;16129880;19;129678;-49
2023/01/04 13:16:10;;;;;;;28.02;1.60;;;;;;;19.65;40.88;101459.75;16129805;19;129861;-50
2023/01/04 13:21:41;;;;;;;17.65;1.05;;;;;;;19.57;40.92;101454.53;16126965;19;129805;-47
2023/01/04 13:27:33;;;;;;;15.93;1.20;;;;;;;19.55;41.09;101480.84;16129145;19;130350;-46
2023/01/04 13:32:55;;;;;;;18.27;0.98;;;;;;;19.49;41.04;101483.50;16126255;19;129213;-45
2023/01/04 13:38:39;;;;;;;12.07;1.10;;;;;;;19.45;41.09;101485.06;16128866;19;129987;-49
2023/01/04 13:44:20;;;;;;;7.68;0.57;;;;;;;19.41;41.36;101481.06;16125595;19;128968;-45
2023/01/04 13:49:49;;;;;;;6.05;0.45;;;;;;;19.36;41.22;101481.78;16128336;19;129452;-46
2023/01/04 13:55:22;;;;;;;3.65;0.40;;;;;;;19.34;41.72;101470.06;16127892;19;129912;-48
2023/01/04 14:01:11;;;;;;;2.63;0.30;;;;;;;19.29;41.75;101469.94;16128355;19;130318;-51
2023/01/04 14:06:44;;;;;;;7.85;1.08;;;;;;;19.24;41.96;101469.81;16126490;19;130087;-47
2023/01/04 14:12:32;;;;;;;26.88;1.40;;;;;;;19.20;42.28;101463.03;16122975;19;129004;-48
2023/01/04 14:17:55;;;;;;;13.82;0.80;;;;;;;19.16;42.74;101447.94;16122209;19;129644;-51
2023/01/04 14:23:32;;;;;;;15.68;1.10;;;;;;;19.17;42.68;101438.53;16124014;19;129648;-49
2023/01/04 14:28:53;;;;;;;;;;;;;;;19.11;43.12;101456.09;16122218;19;129659;-48
2023/01/04 14:34:15;;;;;;;4.53;0.40;;;;;;;19.13;42.93;101467.81;16119184;19;130763;-48
2023/01/04 14:39:37;;;;;;;3.78;0.57;;;;;;;19.10;43.02;101452.50;16122534;19;129478;-45
2023/01/04 14:44:59;;;;;;;1.58;0.28;;;;;;;19.10;43.42;101459.97;16122318;19;130308;-51
2023/01/04 14:50:21;;;;;;;3.03;0.40;;;;;;;19.10;43.55;101448.88;16121452;19;129491;-50
2023/01/04 14:55:42;;;;;;;1.70;0.40;;;;;;;19.10;43.41;101451.63;16122611;19;130132;-48
2023/01/04 15:01:04;;;;;;;2.95;0.40;;;;;;;19.11;43.37;101447.78;16124884;19;129783;-45
2023/01/04 15:06:26;;;;;;;4.38;0.50;;;;;;;19.11;43.83;101448.66;16121221;19;129566;-47
2023/01/04 15:11:48;;;;;;;1.55;0.30;;;;;;;19.10;43.92;101451.63;16121112;19;129655;-45
2023/01/04 15:17:10;;;;;;;3.75;0.65;;;;;;;19.11;43.70;101436.69;16117899;19;129555;-47
2023/01/04 15:22:32;;;;;;;1.55;0.40;;;;;;;19.10;43.27;101440.56;16116268;19;129604;-46
2023/01/04 15:27:53;;;;;;;1.38;0.40;;;;;;;19.07;43.63;101436.34;16118985;19;131200;-48
2023/01/04 15:33:15;;;;;;;2.30;0.30;;;;;;;19.03;43.77;101435.97;16118249;19;131970;-47
2023/01/04 15:38:37;;;;;;;3.00;0.98;;;;;;;19.00;43.74;101449.47;16117719;19;129519;-45
2023/01/04 15:43:59;;;;;;;4.15;0.35;;;;;;;18.99;43.82;101461.63;16124437;19;129900;-51
2023/01/04 15:49:21;;;;;;;3.10;0.65;;;;;;;18.96;44.13;101462.09;16122909;19;129349;-46
2023/01/04 15:54:43;;;;;;;3.58;0.43;;;;;;;18.93;43.85;101468.97;16120102;19;130591;-47
2023/01/04 16:00:05;;;;;;;6.40;0.50;;;;;;;18.91;43.71;101490.53;16120002;19;130247;-48
2023/01/04 16:05:27;;;;;;;4.47;0.40;;;;;;;18.86;44.32;101480.16;16113371;19;131279;-48
2023/01/04 16:10:49;;;;;;;3.28;0.65;;;;;;;18.86;44.55;101463.50;16115377;19;130807;-48
2023/01/04 16:16:11;;;;;;;3.08;0.73;;;;;;;18.93;44.85;101466.19;16114047;19;129852;-50
2023/01/04 16:21:33;;;;;;;2.63;0.60;;;;;;;19.04;44.71;101470.94;16112650;19;130863;-45
2023/01/04 16:26:55;;;;;;;2.88;0.50;;;;;;;19.32;44.28;101455.59;16115202;19;129427;-45
2023/01/04 16:32:17;;;;;;;5.63;0.73;;;;;;;19.68;43.39;101464.81;16114276;19;131920;-49
2023/01/04 16:37:41;;;;;;;5.90;0.82;;;;;;;20.06;43.34;101468.22;16114929;19;129460;-50
2023/01/04 16:43:05;;;;;;;2.60;0.63;;;;;;;20.35;42.45;101464.66;16112602;19;130390;-48
2023/01/04 16:48:27;;;;;;;1.58;0.68;;;;;;;20.59;42.45;101463.50;16114589;19;129624;-50
2023/01/04 16:53:49;;;;;;;2.72;0.82;;;;;;;20.81;42.03;101482.31;16113799;19;130917;-48
2023/01/04 16:59:14;;;;;;;2.72;1.00;;;;;;;20.97;41.70;101482.63;16112559;19;130065;-49
2023/01/04 17:04:36;;;;;;;4.13;1.27;;;;;;;21.03;41.59;101484.44;16108750;19;129882;-48
2023/01/04 17:09:59;;;;;;;6.00;1.60;;;;;;;21.02;41.56;101482.72;16111330;19;130253;-50
2023/01/04 17:15:21;;;;;;;3.17;1.33;;;;;;;20.94;42.09;101485.91;16109246;19;129516;-49
2023/01/04 17:21:06;;;;;;;7.18;1.70;;;;;;;20.83;42.36;101473.75;16122765;19;130208;-52
2023/01/04 17:26:48;;;;;;;7.38;2.00;;;;;;;20.73;42.60;101482.69;16126658;19;131321;-49
2023/01/04 17:32:10;;;;;;;4.30;1.45;;;;;;;20.62;42.44;101494.69;16127826;19;130233;-49
2023/01/04 17:37:32;;;;;;;8.15;2.20;;;;;;;20.51;42.84;101511.16;16127170;19;131238;-51
2023/01/04 17:42:53;;;;;;;8.75;2.40;;;;;;;20.42;42.82;101501.53;16125463;19;130661;-47
2023/01/04 17:48:17;;;;;;;11.48;2.17;;;;;;;20.32;42.47;101509.59;16131057;19;129734;-51
2023/01/04 17:53:41;;;;;;;11.13;2.63;;;;;;;20.21;43.02;101506.59;16129754;19;129553;-50
2023/01/04 17:59:05;;;;;;;15.30;3.35;;;;;;;20.16;42.92;101516.75;16123056;19;130744;-51
2023/01/04 18:04:27;;;;;;;13.07;3.53;;;;;;;20.09;43.01;101522.44;16124386;19;130860;-49
2023/01/04 18:09:52;;;;;;;16.50;3.35;;;;;;;20.05;42.61;101529.59;16123801;19;130343;-51
2023/01/04 18:15:14;;;;;;;15.43;3.33;;;;;;;19.96;42.87;101543.78;16124310;19;130830;-52
2023/01/04 18:20:35;;;;;;;25.30;4.10;;;;;;;19.93;42.72;101555.38;16116742;19;130185;-50
2023/01/04 18:26:00;;;;;;;19.75;3.60;;;;;;;19.93;42.85;101560.06;16122864;19;129750;-50
2023/01/04 18:31:23;;;;;;;14.52;2.72;;;;;;;19.99;43.13;101554.44;16121275;19;130782;-51
2023/01/04 18:36:45;;;;;;;16.27;2.72;;;;;;;20.09;42.80;101544.66;16126728;19;130986;-51
2023/01/04 18:42:07;;;;;;;16.65;3.08;;;;;;;20.21;43.09;101522.44;16124584;19;129160;-49
2023/01/04 18:47:28;;;;;;;17.73;3.30;;;;;;;20.33;42.79;101544.66;16120114;19;130248;-52
2023/01/04 18:52:50;;;;;;;14.32;3.50;;;;;;;20.39;42.68;101546.47;16122048;19;130254;-51
2023/01/04 18:58:12;;;;;;;25.35;3.92;;;;;;;20.47;42.65;101554.41;16120391;19;129405;-50
2023/01/04 19:03:41;;;;;;;21.38;3.42;;;;;;;20.55;42.66;101562.41;16117951;19;130811;-48
2023/01/04 19:09:03;;;;;;;15.68;3.20;;;;;;;20.62;42.17;101589.22;16120420;19;129740;-51
2023/01/04 19:14:27;;;;;;;10.52;2.85;;;;;;;20.68;42.48;101577.09;16118673;19;129682;-49
2023/01/04 19:19:50;;;;;;;11.85;3.00;;;;;;;20.73;42.06;101560.53;16088895;19;131041;-52
2023/01/04 19:25:12;;;;;;;12.98;3.10;;;;;;;20.78;42.13;101571.81;16119194;19;130974;-52
2023/01/04 19:30:40;;;;;;;10.20;3.10;;;;;;;20.83;42.17;101591.38;16118647;19;130482;-46
2023/01/04 19:36:06;;;;;;;9.13;2.42;;;;;;;20.87;41.88;101600.06;16119828;19;134786;-48
2023/01/04 19:41:33;;;;;;;12.93;2.90;;;;;;;20.89;42.27;101589.53;16117826;19;130081;-52
2023/01/04 19:46:55;;;;;;;10.02;3.13;;;;;;;20.94;42.05;101598.00;16116821;19;129470;-49
2023/01/04 19:52:16;;;;;;;9.75;2.42;;;;;;;20.97;41.77;101586.41;16117928;19;129535;-47
2023/01/04 19:57:38;;;;;;;10.38;2.97;;;;;;;20.97;41.96;101605.00;16121029;19;129598;-52
2023/01/04 20:03:00;;;;;;;12.85;2.95;;;;;;;20.93;41.81;101592.69;16119654;19;130721;-50
2023/01/04 20:08:22;;;;;;;13.45;2.92;;;;;;;20.94;42.04;101594.38;16118880;19;129900;-51
2023/01/04 20:13:44;;;;;;;17.42;3.90;;;;;;;20.90;41.62;101603.22;16119647;19;130712;-49
2023/01/04 20:19:05;;;;;;;20.83;3.33;;;;;;;20.97;41.72;101607.78;16121792;19;129962;-49
2023/01/04 20:24:27;;;;;;;16.35;3.35;;;;;;;21.02;41.67;101605.97;16120027;19;134818;-48
2023/01/04 20:29:49;;;;;;;15.10;3.42;;;;;;;21.09;41.55;101613.34;16117303;19;129966;-53
2023/01/04 20:35:11;;;;;;;17.75;3.60;;;;;;;21.13;41.47;101601.47;16118427;19;129573;-50
2023/01/04 20:40:32;;;;;;;17.55;3.00;;;;;;;21.18;41.36;101609.06;16118248;19;129486;-49
2023/01/04 20:45:54;;;;;;;14.98;3.90;;;;;;;21.17;41.31;101612.94;16119650;19;130948;-48
2023/01/04 20:51:28;;;;;;;16.67;3.58;;;;;;;21.14;41.09;101613.44;16116068;19;129797;-50
2023/01/04 20:56:50;;;;;;;15.02;3.38;;;;;;;21.09;41.54;101616.13;16136891;19;129379;-47
2023/01/04 21:02:12;;;;;;;16.40;2.97;;;;;;;21.04;41.42;101616.88;16133050;19;130270;-50
2023/01/04 21:07:34;;;;;;;11.10;2.97;;;;;;;21.03;41.39;101612.38;16135807;19;129321;-51
2023/01/04 21:12:56;;;;;;;12.13;2.90;;;;;;;21.00;41.30;101618.44;16131199;19;128932;-50
2023/01/04 21:18:17;;;;;;;14.43;3.30;;;;;;;20.94;41.30;101613.84;16132781;19;130994;-53
2023/01/04 21:23:40;;;;;;;13.38;3.58;;;;;;;20.83;41.47;101616.41;16132415;19;129405;-48
2023/01/04 21:29:02;;;;;;;17.85;3.38;;;;;;;20.75;41.01;101623.19;16134264;19;131186;-50
2023/01/04 21:34:26;;;;;;;12.07;3.13;;;;;;;20.67;41.21;101619.91;16125999;19;130120;-48
2023/01/04 21:39:47;;;;;;;12.93;3.28;;;;;;;20.56;41.76;101636.34;16124072;19;130749;-47
2023/01/04 21:45:09;;;;;;;12.23;3.00;;;;;;;20.48;41.87;101644.22;16129643;19;130226;-48
2023/01/04 21:50:31;;;;;;;12.15;2.67;;;;;;;20.39;41.77;101640.94;16128393;19;130471;-48
2023/01/04 21:56:04;;;;;;;9.95;2.53;;;;;;;20.35;41.95;101639.72;16130218;19;130440;-50
2023/01/04 22:01:27;;;;;;;12.25;2.50;;;;;;;20.26;41.89;101639.22;16132074;19;129904;-46
2023/01/04 22:06:55;;;;;;;9.88;2.95;;;;;;;20.19;41.91;101639.34;16130630;19;129405;-47
2023/01/04 22:12:17;;;;;;;9.43;2.45;;;;;;;20.13;42.02;101635.59;16129735;19;129777;-52
2023/01/04 22:17:38;;;;;;;9.10;2.40;;;;;;;20.09;42.27;101647.44;16129158;19;130381;-49
2023/01/04 22:23:00;;;;;;;11.15;2.80;;;;;;;20.04;42.32;101650.09;16116004;19;129492;-53
2023/01/04 22:28:23;;;;;;;10.85;2.42;;;;;;;19.99;42.23;101643.31;16119646;19;134561;-50
2023/01/04 22:33:45;;;;;;;10.05;2.75;;;;;;;19.94;42.24;101643.13;16122545;19;130023;-48
2023/01/04 22:39:07;;;;;;;11.38;2.75;;;;;;;19.90;42.07;101653.03;16128443;19;129455;-48
2023/01/04 22:44:29;;;;;;;11.30;2.55;;;;;;;19.86;42.33;101654.59;16126528;19;129625;-47
2023/01/04 22:49:50;;;;;;;11.63;2.63;;;;;;;19.82;42.54;101648.69;16128234;19;129610;-50
2023/01/04 22:55:12;;;;;;;8.25;2.10;;;;;;;19.79;42.42;101659.41;16124185;19;129845;-47
2023/01/04 23:00:34;;;;;;;11.48;2.45;;;;;;;19.75;42.43;101661.81;16121065;19;129763;-48
2023/01/04 23:05:56;;;;;;;8.45;2.55;;;;;;;19.73;42.22;101660.34;16122027;19;130917;-46
2023/01/04 23:11:18;;;;;;;8.95;2.28;;;;;;;19.68;42.55;101659.13;16120554;19;129525;-50
2023/01/04 23:16:40;;;;;;;7.85;2.55;;;;;;;19.65;42.45;101655.97;16121137;19;129583;-46
2023/01/04 23:22:03;;;;;;;6.82;1.88;;;;;;;19.62;42.64;101664.78;16121388;19;129867;-50
2023/01/04 23:27:25;;;;;;;7.10;1.90;;;;;;;19.60;42.72;101669.72;16118733;19;129181;-47
2023/01/04 23:32:46;;;;;;;6.22;2.10;;;;;;;19.57;42.31;101681.28;16122305;19;129869;-46
2023/01/04 23:38:08;;;;;;;10.55;2.80;;;;;;;19.54;42.37;101685.38;16118714;19;130046;-48
2023/01/04 23:43:30;;;;;;;8.80;2.55;;;;;;;19.53;42.69;101689.25;16118855;19;129036;-47
2023/01/04 23:48:52;;;;;;;8.93;2.33;;;;;;;19.50;42.72;101695.25;16121557;19;129982;-47
2023/01/04 23:54:13;;;;;;;10.15;2.35;;;;;;;19.48;42.62;101691.84;15966022;19;2992046;-49
2023/01/04 23:59:35;;;;;;;6.85;1.98;;;;;;;19.47;42.45;101717.91;16122058;19;129781;-48
